Time;durP1;ratioP1;P1;durP2;ratioP2;P2;SDS_P1;SDS_P2;PMS_P1;PMS_P2;Temp;Humidity;BMP_temperature;BMP_pressure;BME280_temperature;BME280_humidity;BME280_pressure;Samples;Min_cycle;Max_cycle;Signal;HPM_P1;HPM_P2
2023/01/07 00:00:15;;;;;;;11.20;7.00;;;7.80;99.90;;;;;;5003481;28;20245;-88
2023/01/07 00:02:43;;;;;;;10.45;6.70;;;7.70;99.90;;;;;;5022802;28;20209;-88
2023/01/07 00:05:10;;;;;;;11.63;5.78;;;7.70;99.90;;;;;;5005472;28;20210;-90
2023/01/07 00:07:37;;;;;;;12.70;7.72;;;7.70;99.90;;;;;;5033878;28;20221;-87
2023/01/07 00:10:04;;;;;;;7.45;5.97;;;7.80;99.90;;;;;;5011402;28;20209;-88
2023/01/07 00:12:32;;;;;;;11.18;6.70;;;7.70;99.90;;;;;;5019855;28;20204;-87
2023/01/07 00:14:59;;;;;;;8.77;6.15;;;7.70;99.90;;;;;;5006906;28;20300;-87
2023/01/07 00:17:29;;;;;;;8.15;6.32;;;7.70;99.90;;;;;;5001523;28;20299;-87
2023/01/07 00:19:57;;;;;;;12.38;7.57;;;7.70;99.90;;;;;;5035144;28;20213;-86
2023/01/07 00:22:25;;;;;;;12.63;6.10;;;7.60;99.90;;;;;;5012889;28;20209;-88
2023/01/07 00:24:52;;;;;;;10.18;7.13;;;7.50;99.90;;;;;;5003418;28;20252;-88
2023/01/07 00:27:19;;;;;;;10.90;7.22;;;7.50;99.90;;;;;;5015772;28;20205;-87
2023/01/07 00:29:49;;;;;;;10.73;8.13;;;7.40;99.90;;;;;;4999145;28;20202;-85
2023/01/07 00:32:17;;;;;;;10.45;7.80;;;7.40;99.90;;;;;;4998957;28;20260;-89
2023/01/07 00:34:45;;;;;;;10.05;7.72;;;7.30;99.90;;;;;;5010433;28;20205;-88
2023/01/07 00:39:59;;;;;;;10.95;8.60;;;7.20;99.90;;;;;;4995357;28;20229;-87
2023/01/07 00:45:12;;;;;;;11.95;8.65;;;7.10;99.90;;;;;;5003441;28;20297;-86
2023/01/07 00:47:39;;;;;;;13.55;10.68;;;7.10;99.90;;;;;;5004265;28;20229;-87
2023/01/07 00:50:07;;;;;;;13.82;10.20;;;7.10;99.90;;;;;;5016742;28;20221;-89
2023/01/07 00:52:34;;;;;;;12.55;9.63;;;7.10;99.90;;;;;;5010635;28;20236;-91
2023/01/07 00:55:01;;;;;;;16.13;11.15;;;7.10;99.90;;;;;;5018298;28;20233;-89
2023/01/07 00:57:28;;;;;;;16.17;10.55;;;7.10;99.90;;;;;;5003650;28;20609;-88
2023/01/07 00:59:55;;;;;;;15.57;12.35;;;7.10;99.90;;;;;;5001941;28;20540;-87
2023/01/07 01:02:25;;;;;;;12.95;10.60;;;7.10;99.90;;;;;;5001549;28;20232;-87
2023/01/07 01:04:52;;;;;;;14.85;9.60;;;7.10;99.90;;;;;;5000295;28;20796;-88
2023/01/07 01:07:19;;;;;;;17.45;10.90;;;7.20;99.90;;;;;;5016664;28;20393;-88
2023/01/07 01:09:48;;;;;;;19.10;12.43;;;7.30;99.90;;;;;;5001075;28;20213;-87
2023/01/07 01:12:15;;;;;;;18.10;13.82;;;7.30;99.90;;;;;;5001476;28;20272;-86
2023/01/07 01:14:43;;;;;;;20.77;11.20;;;7.40;99.90;;;;;;5000346;28;20210;-86
2023/01/07 01:17:10;;;;;;;17.00;12.00;;;7.30;99.90;;;;;;5000119;28;20256;-86
2023/01/07 01:19:38;;;;;;;15.52;11.50;;;7.50;99.90;;;;;;4999935;28;20280;-86
2023/01/07 01:22:05;;;;;;;19.92;12.75;;;7.60;99.90;;;;;;5016581;28;20209;-86
2023/01/07 01:24:32;;;;;;;16.30;12.10;;;7.70;99.90;;;;;;4998522;28;20197;-86
2023/01/07 01:27:00;;;;;;;12.63;8.73;;;7.90;99.90;;;;;;4995691;28;20202;-85
2023/01/07 01:29:29;;;;;;;13.48;10.70;;;8.00;99.90;;;;;;5013173;28;20233;-87
2023/01/07 01:31:56;;;;;;;9.88;8.68;;;8.00;99.90;;;;;;5000928;28;20252;-85
2023/01/07 01:34:25;;;;;;;12.82;10.02;;;8.10;99.90;;;;;;5000597;28;20267;-85
2023/01/07 01:36:52;;;;;;;9.10;7.57;;;8.10;99.90;;;;;;5000733;28;20209;-86
2023/01/07 01:39:20;;;;;;;10.52;7.30;;;8.10;99.90;;;;;;5002995;28;20217;-85
2023/01/07 01:41:47;;;;;;;9.93;7.72;;;8.00;99.90;;;;;;5015655;28;20236;-84
2023/01/07 01:44:33;;;;;;;10.85;7.75;;;7.80;99.90;;;;;;5012265;28;20221;-82
2023/01/07 01:47:05;;;;;;;7.72;6.40;;;7.80;99.90;;;;;;4994492;28;20205;-85
2023/01/07 01:49:37;;;;;;;10.57;7.50;;;7.60;99.90;;;;;;4999975;28;20209;-86
2023/01/07 01:52:10;;;;;;;8.05;6.38;;;7.60;99.90;;;;;;5016572;28;20201;-85
2023/01/07 01:54:39;;;;;;;9.95;7.18;;;7.60;99.90;;;;;;4989774;28;20214;-87
2023/01/07 01:57:16;;;;;;;9.80;7.22;;;7.80;99.90;;;;;;5005534;28;20209;-86
2023/01/07 01:59:46;;;;;;;10.07;7.45;;;7.60;99.90;;;;;;5009874;28;20224;-86
2023/01/07 02:02:21;;;;;;;11.00;7.65;;;7.50;99.90;;;;;;4989486;28;20209;-86
2023/01/07 02:04:49;;;;;;;9.43;7.32;;;7.50;99.90;;;;;;4995114;28;20532;-85
2023/01/07 02:07:19;;;;;;;11.73;6.88;;;7.40;99.90;;;;;;5018905;28;20217;-84
2023/01/07 02:10:25;;;;;;;7.88;7.07;;;7.50;99.90;;;;;;5002893;28;20453;-85
2023/01/07 02:13:11;;;;;;;8.27;6.75;;;7.50;99.90;;;;;;5014849;28;20209;-85
2023/01/07 02:15:50;;;;;;;10.57;6.95;;;7.40;99.90;;;;;;5004278;28;20202;-86
2023/01/07 02:18:25;;;;;;;7.43;6.72;;;7.50;99.90;;;;;;5005476;28;20205;-86
2023/01/07 02:21:19;;;;;;;8.85;6.88;;;7.30;99.90;;;;;;5003071;28;20292;-86
2023/01/07 02:24:15;;;;;;;7.80;7.05;;;7.20;99.90;;;;;;5022846;28;20201;-86
2023/01/07 02:26:59;;;;;;;7.82;6.13;;;7.20;99.90;;;;;;4990584;28;20213;-85
2023/01/07 02:29:30;;;;;;;8.27;6.35;;;7.10;99.90;;;;;;5000361;28;20200;-86
2023/01/07 02:32:09;;;;;;;8.77;6.55;;;7.10;99.90;;;;;;5002688;28;20209;-86
2023/01/07 02:34:55;;;;;;;9.85;7.03;;;7.00;99.90;;;;;;5002137;28;20209;-86
2023/01/07 02:37:34;;;;;;;11.73;9.05;;;7.00;99.90;;;;;;4995284;28;20214;-88
2023/01/07 02:40:28;;;;;;;13.13;10.55;;;6.90;99.90;;;;;;5018989;28;20305;-87
2023/01/07 02:43:23;;;;;;;19.35;10.68;;;7.00;99.90;;;;;;4993721;28;20201;-89
2023/01/07 02:46:09;;;;;;;15.60;11.00;;;6.90;99.90;;;;;;5014641;28;20663;-88
2023/01/07 02:48:37;;;;;;;18.92;13.45;;;6.90;99.90;;;;;;5006545;28;20222;-88
2023/01/07 02:51:04;;;;;;;20.40;13.82;;;7.00;99.90;;;;;;4997717;28;20210;-88
2023/01/07 02:53:33;;;;;;;16.15;11.13;;;7.20;99.90;;;;;;5005089;28;20237;-87
2023/01/07 02:56:20;;;;;;;18.67;11.55;;;7.40;99.90;;;;;;5006077;28;20514;-87
2023/01/07 02:59:05;;;;;;;18.90;11.73;;;7.40;99.90;;;;;;5012948;28;20221;-88
2023/01/07 03:02:15;;;;;;;12.93;10.10;;;7.50;99.90;;;;;;5012030;28;20289;-87
2023/01/07 03:05:14;;;;;;;15.77;11.55;;;7.70;99.90;;;;;;5031883;28;20217;-87
2023/01/07 03:07:59;;;;;;;15.20;9.77;;;7.80;99.90;;;;;;5014501;28;20252;-88
2023/01/07 03:10:38;;;;;;;13.38;9.13;;;7.90;99.90;;;;;;5014118;28;20217;-88
2023/01/07 03:13:57;;;;;;;9.50;8.15;;;7.90;99.90;;;;;;5014508;28;20205;-87
2023/01/07 03:16:33;;;;;;;10.63;7.70;;;7.90;99.90;;;;;;5018021;28;20193;-86
2023/01/07 03:19:06;;;;;;;12.85;7.45;;;7.90;99.90;;;;;;4999336;28;20266;-88
2023/01/07 03:21:35;;;;;;;11.02;7.75;;;8.00;99.90;;;;;;5005955;28;20273;-87
2023/01/07 03:24:06;;;;;;;12.32;8.88;;;8.00;99.90;;;;;;5003194;28;20502;-88
2023/01/07 03:26:48;;;;;;;10.50;7.90;;;7.80;99.90;;;;;;5015168;28;20240;-87
2023/01/07 03:29:18;;;;;;;8.20;6.30;;;7.70;99.90;;;;;;5011197;28;20359;-87
2023/01/07 03:32:01;;;;;;;7.70;6.57;;;7.60;99.90;;;;;;5005723;28;20211;-87
2023/01/07 03:34:31;;;;;;;7.60;6.32;;;7.30;99.90;;;;;;5002575;28;20207;-87
2023/01/07 03:37:03;;;;;;;7.93;6.43;;;7.10;99.90;;;;;;5001837;28;20220;-86
2023/01/07 03:39:33;;;;;;;9.20;6.95;;;7.20;99.90;;;;;;5018603;28;20204;-87
2023/01/07 03:44:54;;;;;;;8.98;7.40;;;7.10;99.90;;;;;;5012735;28;20525;-86
2023/01/07 03:47:22;;;;;;;8.60;7.45;;;7.00;99.90;;;;;;5002905;28;20221;-86
2023/01/07 03:49:49;;;;;;;19.70;11.27;;;6.80;99.90;;;;;;5001965;28;20210;-85
2023/01/07 03:52:16;;;;;;;11.85;9.25;;;6.70;99.90;;;;;;5017998;28;20283;-84
2023/01/07 03:54:42;;;;;;;11.32;8.90;;;6.40;99.90;;;;;;5001642;28;20214;-88
2023/01/07 03:57:10;;;;;;;15.43;10.02;;;6.60;99.90;;;;;;5014980;28;20268;-84
2023/01/07 03:59:38;;;;;;;9.75;8.77;;;6.60;99.90;;;;;;5004468;28;20636;-85
2023/01/07 04:02:05;;;;;;;10.88;7.07;;;6.60;99.90;;;;;;5015472;28;20262;-84
2023/01/07 04:04:33;;;;;;;13.13;9.57;;;6.80;99.90;;;;;;5009193;28;20546;-86
2023/01/07 04:07:00;;;;;;;10.95;8.65;;;6.30;99.90;;;;;;5026394;28;20217;-88
2023/01/07 04:09:27;;;;;;;13.57;7.70;;;6.20;99.90;;;;;;5005317;28;20186;-85
2023/01/07 04:11:55;;;;;;;14.65;8.13;;;6.10;99.90;;;;;;5025603;28;20232;-86
2023/01/07 04:14:22;;;;;;;10.70;8.25;;;6.00;99.90;;;;;;5025482;28;20526;-87
2023/01/07 04:16:50;;;;;;;12.20;8.80;;;6.10;99.90;;;;;;5000335;28;20210;-87
2023/01/07 04:19:17;;;;;;;18.15;10.68;;;6.00;99.90;;;;;;4998818;28;20241;-87
2023/01/07 04:21:45;;;;;;;11.65;9.45;;;6.10;99.90;;;;;;5002688;28;20230;-86
2023/01/07 04:24:13;;;;;;;14.98;10.70;;;6.00;99.90;;;;;;5004933;28;20217;-86
2023/01/07 04:26:41;;;;;;;15.48;9.82;;;5.90;99.90;;;;;;5004188;28;20210;-86
2023/01/07 04:29:09;;;;;;;17.23;11.32;;;5.90;99.90;;;;;;5002826;28;20249;-86
2023/01/07 04:31:40;;;;;;;14.52;10.90;;;5.90;99.90;;;;;;5002911;28;20210;-86
2023/01/07 04:34:09;;;;;;;12.57;8.85;;;6.10;99.90;;;;;;5002204;28;20505;-86
2023/01/07 04:36:36;;;;;;;18.40;11.00;;;6.10;99.90;;;;;;5002464;28;20194;-86
2023/01/07 04:39:03;;;;;;;13.98;10.48;;;6.00;99.90;;;;;;4992982;28;20209;-86
2023/01/07 04:41:31;;;;;;;13.52;10.80;;;6.00;99.90;;;;;;5001482;28;20568;-86
2023/01/07 04:43:58;;;;;;;13.98;11.68;;;6.00;99.90;;;;;;4999348;28;20276;-86
2023/01/07 04:46:25;;;;;;;12.25;10.32;;;6.10;99.90;;;;;;5001473;28;20541;-87
2023/01/07 04:48:53;;;;;;;13.82;10.23;;;6.00;99.90;;;;;;5015017;28;20275;-87
2023/01/07 04:51:20;;;;;;;16.58;11.02;;;5.90;99.90;;;;;;5017936;28;20201;-86
2023/01/07 04:53:50;;;;;;;16.45;11.48;;;5.80;99.90;;;;;;5008772;28;20202;-86
2023/01/07 04:56:18;;;;;;;16.23;11.55;;;5.90;99.90;;;;;;4997238;28;20206;-86
2023/01/07 04:58:47;;;;;;;14.80;10.95;;;6.00;99.90;;;;;;4993814;28;20241;-87
2023/01/07 05:01:14;;;;;;;20.13;11.80;;;5.90;99.90;;;;;;5001622;28;20232;-86
2023/01/07 05:03:42;;;;;;;17.15;11.60;;;6.00;99.90;;;;;;5001658;28;20209;-87
2023/01/07 05:06:10;;;;;;;18.00;13.65;;;6.30;99.90;;;;;;5016963;28;20210;-86
2023/01/07 05:08:37;;;;;;;16.90;11.55;;;6.40;99.90;;;;;;5002534;28;20268;-85
2023/01/07 05:11:04;;;;;;;22.00;15.50;;;6.60;99.90;;;;;;4989993;28;20445;-88
2023/01/07 05:13:34;;;;;;;21.83;14.05;;;6.70;99.90;;;;;;5001656;28;20201;-85
2023/01/07 05:16:06;;;;;;;18.05;13.88;;;6.70;99.90;;;;;;5015123;28;20411;-87
2023/01/07 05:18:35;;;;;;;20.38;13.32;;;6.60;99.90;;;;;;5000459;28;20390;-87
2023/01/07 05:21:04;;;;;;;18.92;13.00;;;6.70;99.90;;;;;;5007737;28;20233;-86
2023/01/07 05:23:32;;;;;;;13.25;10.63;;;6.70;99.90;;;;;;5013420;28;20197;-87
2023/01/07 05:25:59;;;;;;;12.60;9.68;;;6.60;99.90;;;;;;5016078;28;20216;-83
2023/01/07 05:28:27;;;;;;;16.85;11.77;;;6.60;99.90;;;;;;5002922;28;20205;-86
2023/01/07 05:30:54;;;;;;;9.80;8.55;;;6.40;99.90;;;;;;4999470;28;20209;-86
2023/01/07 05:33:21;;;;;;;12.23;9.35;;;6.10;99.90;;;;;;4999930;28;20256;-84
2023/01/07 05:35:49;;;;;;;14.02;10.00;;;6.10;99.90;;;;;;4993453;28;20209;-83
2023/01/07 05:38:16;;;;;;;14.40;9.25;;;6.20;99.90;;;;;;5000240;28;20232;-86
2023/01/07 05:40:48;;;;;;;15.73;11.10;;;6.20;99.90;;;;;;5015176;28;20221;-85
2023/01/07 05:43:16;;;;;;;13.30;10.07;;;6.20;99.90;;;;;;5002514;28;20217;-85
2023/01/07 05:45:44;;;;;;;14.60;10.55;;;6.20;99.90;;;;;;4991701;28;20276;-86
2023/01/07 05:48:14;;;;;;;18.02;12.38;;;6.10;99.90;;;;;;5000141;28;20205;-84
2023/01/07 05:50:44;;;;;;;13.35;10.65;;;6.10;99.90;;;;;;4991726;28;20249;-85
2023/01/07 05:53:11;;;;;;;13.75;9.90;;;6.00;99.90;;;;;;5000563;28;20389;-84
2023/01/07 05:55:39;;;;;;;12.80;10.70;;;6.00;99.90;;;;;;4999016;28;20205;-84
2023/01/07 05:58:06;;;;;;;13.85;10.75;;;5.90;99.90;;;;;;5000978;28;20284;-85
2023/01/07 06:00:35;;;;;;;12.82;10.48;;;6.10;99.90;;;;;;5000203;28;20587;-86
2023/01/07 06:03:03;;;;;;;13.15;10.48;;;6.50;99.90;;;;;;5000158;28;20201;-85
2023/01/07 06:05:31;;;;;;;11.98;10.70;;;6.70;99.90;;;;;;5011258;28;20277;-85
2023/01/07 06:07:58;;;;;;;15.82;10.57;;;6.60;99.90;;;;;;5004645;28;20208;-85
2023/01/07 06:10:26;;;;;;;12.77;10.68;;;6.50;99.90;;;;;;4999086;28;20209;-85
2023/01/07 06:12:54;;;;;;;13.88;11.00;;;6.70;99.90;;;;;;5000082;28;20213;-85
2023/01/07 06:15:21;;;;;;;15.90;12.32;;;6.50;99.90;;;;;;5000004;28;20237;-84
2023/01/07 06:17:49;;;;;;;14.52;11.15;;;6.40;99.90;;;;;;4984783;28;20257;-83
2023/01/07 06:20:16;;;;;;;14.20;10.75;;;6.50;99.90;;;;;;5001281;28;20236;-87
2023/01/07 06:22:56;;;;;;;14.63;11.70;;;6.60;99.90;;;;;;5001041;28;20205;-83
2023/01/07 06:25:25;;;;;;;18.83;13.65;;;6.30;99.90;;;;;;5000096;28;20210;-85
2023/01/07 06:27:52;;;;;;;18.13;13.07;;;6.40;99.90;;;;;;4997864;28;20206;-86
2023/01/07 06:30:20;;;;;;;20.35;13.75;;;6.50;99.90;;;;;;4999616;28;20201;-86
2023/01/07 06:32:49;;;;;;;15.68;11.73;;;6.50;99.90;;;;;;4998705;28;20198;-85
2023/01/07 06:35:16;;;;;;;18.88;12.43;;;6.40;99.90;;;;;;4996412;28;20281;-85
2023/01/07 06:37:43;;;;;;;16.10;11.60;;;6.20;99.90;;;;;;5000674;28;20213;-86
2023/01/07 06:40:23;;;;;;;15.23;12.05;;;6.30;99.90;;;;;;5000413;28;20301;-85
2023/01/07 06:42:52;;;;;;;20.30;13.30;;;6.40;99.90;;;;;;4996364;28;20237;-84
2023/01/07 06:45:21;;;;;;;20.23;13.65;;;6.60;99.90;;;;;;5005281;28;20273;-85
2023/01/07 06:47:48;;;;;;;22.40;12.43;;;7.00;99.90;;;;;;5013007;28;20233;-83
2023/01/07 06:50:16;;;;;;;21.75;13.25;;;7.10;99.90;;;;;;5019142;28;20212;-86
2023/01/07 06:52:44;;;;;;;22.23;15.50;;;7.20;99.90;;;;;;4990433;28;20198;-85
2023/01/07 06:55:12;;;;;;;18.63;12.60;;;7.30;99.90;;;;;;4999527;28;20214;-85
2023/01/07 06:57:39;;;;;;;21.70;12.50;;;7.20;99.90;;;;;;4994874;28;20264;-86
2023/01/07 07:00:08;;;;;;;12.52;9.52;;;7.30;99.90;;;;;;5018479;28;20213;-84
2023/01/07 07:02:35;;;;;;;16.17;10.80;;;7.20;99.90;;;;;;5003219;28;20237;-89
2023/01/07 07:05:04;;;;;;;11.95;9.60;;;7.40;99.90;;;;;;5018405;28;20209;-87
2023/01/07 07:07:32;;;;;;;12.68;10.05;;;7.40;99.90;;;;;;5003441;28;20244;-85
2023/01/07 07:10:05;;;;;;;12.55;9.57;;;7.40;99.90;;;;;;5003858;28;20441;-85
2023/01/07 07:12:34;;;;;;;10.35;8.50;;;7.40;99.90;;;;;;5018551;28;20209;-84
2023/01/07 07:15:01;;;;;;;14.00;9.32;;;7.40;99.90;;;;;;5003893;28;20209;-84
2023/01/07 07:17:28;;;;;;;12.85;9.70;;;7.40;99.90;;;;;;5007231;28;20273;-87
2023/01/07 07:19:56;;;;;;;16.17;9.68;;;7.60;99.90;;;;;;5026019;28;20202;-87
2023/01/07 07:22:23;;;;;;;16.50;8.80;;;7.40;99.90;;;;;;5030237;28;20230;-87
2023/01/07 07:24:52;;;;;;;13.68;8.57;;;7.40;99.90;;;;;;5016793;28;20224;-87
2023/01/07 07:27:22;;;;;;;11.30;8.38;;;7.40;99.90;;;;;;5008093;28;20264;-87
2023/01/07 07:29:50;;;;;;;11.82;9.38;;;7.50;99.90;;;;;;5005245;28;20225;-86
2023/01/07 07:32:17;;;;;;;13.63;8.57;;;7.40;99.90;;;;;;5012430;28;20206;-84
2023/01/07 07:34:44;;;;;;;12.15;8.60;;;7.50;99.90;;;;;;5018966;28;20213;-89
2023/01/07 07:37:11;;;;;;;15.38;11.13;;;7.60;99.90;;;;;;5003044;28;20523;-87
2023/01/07 07:39:38;;;;;;;11.63;8.38;;;7.70;99.90;;;;;;5003604;28;20260;-88
2023/01/07 07:42:05;;;;;;;13.95;10.25;;;8.00;99.90;;;;;;5004442;28;20225;-87
2023/01/07 07:44:35;;;;;;;10.68;9.57;;;8.00;99.90;;;;;;5001934;28;20505;-87
2023/01/07 07:47:04;;;;;;;18.20;8.13;;;8.10;99.90;;;;;;4989795;28;20194;-85
2023/01/07 07:49:31;;;;;;;21.23;11.13;;;7.90;99.90;;;;;;5014323;28;20517;-85
2023/01/07 07:51:58;;;;;;;9.27;8.38;;;7.80;99.90;;;;;;5003886;28;20207;-87
2023/01/07 07:54:27;;;;;;;15.50;9.27;;;7.80;99.90;;;;;;5008270;28;20202;-87
2023/01/07 07:56:55;;;;;;;15.02;10.20;;;7.80;99.90;;;;;;5003135;28;20260;-86
2023/01/07 07:59:25;;;;;;;12.30;8.80;;;7.90;99.90;;;;;;4994724;28;20209;-85
2023/01/07 08:01:52;;;;;;;17.30;8.60;;;8.10;99.90;;;;;;5004379;28;20238;-85
2023/01/07 08:04:20;;;;;;;11.15;8.23;;;8.10;99.90;;;;;;5007158;28;20290;-88
2023/01/07 08:06:48;;;;;;;11.77;7.90;;;8.30;99.90;;;;;;5001644;28;20204;-87
2023/01/07 08:09:16;;;;;;;10.25;8.57;;;8.10;99.90;;;;;;5017237;28;20213;-86
2023/01/07 08:11:44;;;;;;;18.42;13.02;;;8.20;99.90;;;;;;5017710;28;20222;-88
2023/01/07 08:14:11;;;;;;;19.08;13.43;;;8.30;99.90;;;;;;5001987;28;20253;-85
2023/01/07 08:16:39;;;;;;;18.60;13.02;;;8.40;99.90;;;;;;5002237;28;20224;-84
2023/01/07 08:19:06;;;;;;;23.52;13.70;;;8.60;99.90;;;;;;5016953;28;20210;-86
2023/01/07 08:21:34;;;;;;;14.75;11.10;;;8.90;99.90;;;;;;4996992;28;20317;-88
2023/01/07 08:24:02;;;;;;;15.32;10.20;;;9.30;99.90;;;;;;4995078;28;20226;-85
2023/01/07 08:26:29;;;;;;;11.82;8.80;;;9.40;99.90;;;;;;5002622;28;20529;-86
2023/01/07 08:28:59;;;;;;;12.35;9.65;;;9.10;99.90;;;;;;4996488;28;20401;-87
2023/01/07 08:31:26;;;;;;;13.15;8.50;;;8.90;99.90;;;;;;4999440;28;20215;-85
2023/01/07 08:33:54;;;;;;;13.48;9.45;;;9.10;99.90;;;;;;4994438;28;20201;-86
2023/01/07 08:36:23;;;;;;;10.85;8.30;;;9.20;99.90;;;;;;4998292;28;20239;-86
2023/01/07 08:38:54;;;;;;;15.15;11.07;;;9.50;99.90;;;;;;4999523;28;20400;-86
2023/01/07 08:41:24;;;;;;;13.40;9.30;;;9.40;99.90;;;;;;4999767;28;20265;-86
2023/01/07 08:43:55;;;;;;;13.50;9.65;;;9.40;99.90;;;;;;5002215;28;20208;-87
2023/01/07 08:46:24;;;;;;;14.88;10.38;;;9.70;99.90;;;;;;5000536;28;20212;-89
2023/01/07 08:48:51;;;;;;;15.38;10.25;;;9.80;99.90;;;;;;5010058;28;20219;-88
2023/01/07 08:51:19;;;;;;;14.73;10.55;;;9.80;99.90;;;;;;5000786;28;20516;-85
2023/01/07 08:53:47;;;;;;;15.43;10.25;;;9.80;99.90;;;;;;4999045;28;20270;-88
2023/01/07 08:56:14;;;;;;;11.25;9.20;;;9.60;99.90;;;;;;5000579;28;20208;-87
2023/01/07 08:58:41;;;;;;;10.45;7.95;;;9.30;99.90;;;;;;5000853;28;20388;-90
2023/01/07 09:01:10;;;;;;;10.43;8.00;;;9.20;99.90;;;;;;5003440;28;20216;-83
2023/01/07 09:03:38;;;;;;;9.48;8.57;;;9.10;99.90;;;;;;4996669;28;20283;-85
2023/01/07 09:06:06;;;;;;;11.65;8.40;;;9.10;99.90;;;;;;5002712;28;20313;-86
2023/01/07 09:08:37;;;;;;;10.95;7.72;;;9.10;99.90;;;;;;5001063;28;20222;-86
2023/01/07 09:11:05;;;;;;;10.82;8.50;;;9.20;99.90;;;;;;4993532;28;20202;-85
2023/01/07 09:13:33;;;;;;;13.07;8.93;;;9.40;99.90;;;;;;5000472;28;20497;-84
2023/01/07 09:16:03;;;;;;;15.90;8.77;;;9.50;99.90;;;;;;5001295;28;20621;-84
2023/01/07 09:18:31;;;;;;;12.57;10.05;;;9.80;99.90;;;;;;5007610;28;20218;-84
2023/01/07 09:21:00;;;;;;;11.25;9.35;;;10.20;99.90;;;;;;5006010;28;20257;-83
2023/01/07 09:23:29;;;;;;;11.35;9.60;;;10.20;99.90;;;;;;4995230;28;20224;-87
2023/01/07 09:25:56;;;;;;;11.98;9.73;;;10.20;99.90;;;;;;5026062;28;20220;-83
2023/01/07 09:28:23;;;;;;;11.10;8.05;;;10.10;99.90;;;;;;5022253;28;20215;-86
2023/01/07 09:30:53;;;;;;;17.23;9.20;;;10.10;99.90;;;;;;5017576;28;20223;-84
2023/01/07 09:33:23;;;;;;;12.93;8.15;;;10.20;99.90;;;;;;5016140;28;20519;-83
2023/01/07 09:35:50;;;;;;;10.80;7.90;;;10.30;99.90;;;;;;4999933;28;20196;-83
2023/01/07 09:38:18;;;;;;;9.55;7.88;;;10.40;99.90;;;;;;5001425;28;20212;-84
2023/01/07 09:40:47;;;;;;;8.98;8.00;;;10.50;99.90;;;;;;5006053;28;20216;-85
2023/01/07 09:43:35;;;;;;;12.95;8.52;;;10.40;99.90;;;;;;4999245;28;20252;-86
2023/01/07 09:46:23;;;;;;;11.25;7.40;;;10.40;99.90;;;;;;5001293;28;20205;-87
2023/01/07 09:48:58;;;;;;;8.07;7.25;;;10.50;99.90;;;;;;4998286;28;20812;-85
2023/01/07 09:51:44;;;;;;;8.68;6.90;;;10.30;99.90;;;;;;5016462;28;20255;-85
2023/01/07 09:54:27;;;;;;;9.80;7.88;;;10.20;99.90;;;;;;5013878;28;20208;-87
2023/01/07 09:56:54;;;;;;;12.18;9.30;;;10.10;99.90;;;;;;5001380;28;20223;-89
2023/01/07 09:59:22;;;;;;;10.20;8.80;;;9.70;99.90;;;;;;4998633;28;20211;-84
2023/01/07 10:02:12;;;;;;;11.70;8.65;;;9.70;99.90;;;;;;5013716;28;20228;-85
2023/01/07 10:04:55;;;;;;;8.68;7.80;;;9.90;99.90;;;;;;5003510;28;20262;-86
2023/01/07 10:07:46;;;;;;;8.75;7.75;;;9.80;99.90;;;;;;4998511;28;20236;-85
2023/01/07 10:10:38;;;;;;;12.15;9.80;;;10.10;99.90;;;;;;4997189;28;20428;-85
2023/01/07 10:13:50;;;;;;;11.55;8.80;;;10.00;99.90;;;;;;5015592;28;20204;-83
2023/01/07 10:16:50;;;;;;;10.20;7.80;;;10.30;99.90;;;;;;4996274;28;20244;-85
2023/01/07 10:19:23;;;;;;;11.57;8.55;;;10.60;99.90;;;;;;5002684;28;20234;-86
2023/01/07 10:22:01;;;;;;;11.43;8.30;;;10.30;99.90;;;;;;4992210;28;20250;-84
2023/01/07 10:24:44;;;;;;;11.02;8.40;;;10.40;99.90;;;;;;5006711;28;20207;-85
2023/01/07 10:27:17;;;;;;;18.17;10.05;;;10.40;99.90;;;;;;5008409;28;20197;-84
2023/01/07 10:29:50;;;;;;;11.65;9.20;;;10.60;99.90;;;;;;4997595;28;20227;-82
2023/01/07 10:32:20;;;;;;;11.45;7.18;;;10.70;99.90;;;;;;4994146;28;20217;-84
2023/01/07 10:34:52;;;;;;;13.55;11.05;;;10.80;99.90;;;;;;4997417;28;20410;-85
2023/01/07 10:37:34;;;;;;;12.93;9.27;;;10.90;99.90;;;;;;5020119;28;20214;-85
2023/01/07 10:40:21;;;;;;;10.23;8.35;;;11.10;99.90;;;;;;4988117;28;20493;-84
2023/01/07 10:43:03;;;;;;;10.07;7.28;;;11.00;99.90;;;;;;4998204;28;20284;-84
2023/01/07 10:45:39;;;;;;;11.05;9.23;;;11.10;99.90;;;;;;5003031;28;21465;-85
2023/01/07 10:48:20;;;;;;;11.00;9.25;;;11.30;99.90;;;;;;4999798;28;20220;-85
2023/01/07 10:51:07;;;;;;;8.10;7.05;;;11.50;99.90;;;;;;5000824;28;20209;-84
2023/01/07 10:54:18;;;;;;;9.13;8.23;;;11.70;99.90;;;;;;5003055;28;20573;-87
2023/01/07 10:56:49;;;;;;;10.88;9.45;;;12.10;99.90;;;;;;4997570;28;20198;-85
2023/01/07 10:59:19;;;;;;;10.50;9.18;;;12.40;99.90;;;;;;4995815;28;20205;-85
2023/01/07 11:01:57;;;;;;;13.48;10.07;;;12.70;99.90;;;;;;5002685;28;20206;-85
2023/01/07 11:04:26;;;;;;;13.38;9.57;;;12.80;99.90;;;;;;4972060;28;20289;-83
2023/01/07 11:07:03;;;;;;;11.98;10.45;;;12.80;99.90;;;;;;4994280;28;20250;-85
2023/01/07 11:09:37;;;;;;;13.50;10.07;;;12.60;99.90;;;;;;4992214;28;20277;-83
2023/01/07 11:12:29;;;;;;;11.23;8.93;;;12.50;99.90;;;;;;4991139;28;20198;-83
2023/01/07 11:15:03;;;;;;;12.00;10.10;;;12.40;99.90;;;;;;4999052;28;20235;-84
2023/01/07 11:17:36;;;;;;;12.02;7.75;;;12.30;99.90;;;;;;5001735;28;20205;-83
2023/01/07 11:20:07;;;;;;;13.38;9.90;;;12.20;99.90;;;;;;5005341;28;20221;-84
2023/01/07 11:22:38;;;;;;;11.88;8.65;;;11.70;99.90;;;;;;4999578;28;20226;-85
2023/01/07 11:25:27;;;;;;;11.73;9.60;;;11.40;99.90;;;;;;5005556;28;20209;-87
2023/01/07 11:28:02;;;;;;;10.25;8.52;;;11.20;99.90;;;;;;5003631;28;20234;-87
2023/01/07 11:30:33;;;;;;;13.30;9.63;;;11.20;99.90;;;;;;5009976;28;20215;-85
2023/01/07 11:33:05;;;;;;;11.50;9.73;;;11.10;99.90;;;;;;5006348;28;20265;-84
2023/01/07 11:35:33;;;;;;;13.85;10.20;;;11.40;99.90;;;;;;5004687;28;20202;-84
2023/01/07 11:38:22;;;;;;;12.25;9.55;;;11.40;99.90;;;;;;5003846;28;20232;-85
2023/01/07 11:40:59;;;;;;;8.60;7.47;;;11.40;99.90;;;;;;4995129;28;20231;-84
2023/01/07 11:43:37;;;;;;;9.20;8.10;;;11.30;99.90;;;;;;4996164;28;20233;-86
2023/01/07 11:46:14;;;;;;;13.63;8.10;;;11.50;99.90;;;;;;4998072;28;20204;-86
2023/01/07 11:48:48;;;;;;;7.25;6.55;;;11.50;99.90;;;;;;4996616;28;20297;-85
2023/01/07 11:51:18;;;;;;;8.95;7.53;;;11.60;99.90;;;;;;4999968;28;20208;-86
2023/01/07 11:53:58;;;;;;;7.78;6.78;;;11.60;99.90;;;;;;4999634;28;20253;-85
2023/01/07 11:56:32;;;;;;;10.70;7.20;;;12.00;99.90;;;;;;5000314;28;20216;-86
2023/01/07 11:59:15;;;;;;;8.85;7.80;;;12.30;99.90;;;;;;5004657;28;20204;-84
2023/01/07 12:01:50;;;;;;;11.02;7.43;;;12.30;99.90;;;;;;5000846;28;20205;-84
2023/01/07 12:04:32;;;;;;;8.85;7.32;;;12.20;99.90;;;;;;4998908;28;20300;-83
2023/01/07 12:07:06;;;;;;;29.27;13.43;;;12.30;99.90;;;;;;5001985;28;20436;-86
2023/01/07 12:09:38;;;;;;;12.95;8.05;;;12.10;99.90;;;;;;5002522;28;20259;-84
2023/01/07 12:12:38;;;;;;;8.07;7.28;;;11.90;99.90;;;;;;5002316;28;20264;-85
2023/01/07 12:15:37;;;;;;;14.05;8.48;;;11.90;99.90;;;;;;5004707;28;20257;-83
2023/01/07 12:18:30;;;;;;;10.30;6.40;;;11.80;99.90;;;;;;5011707;28;20213;-86
2023/01/07 12:21:45;;;;;;;18.33;9.43;;;11.90;99.90;;;;;;5019263;28;20208;-85
2023/01/07 12:24:18;;;;;;;11.15;7.00;;;11.80;99.90;;;;;;5001802;28;20232;-86
2023/01/07 12:27:22;;;;;;;17.95;8.85;;;11.80;99.90;;;;;;5001726;28;20209;-87
2023/01/07 12:29:58;;;;;;;11.38;6.15;;;12.00;99.90;;;;;;5001070;28;20227;-86
2023/01/07 12:32:50;;;;;;;8.00;6.40;;;12.20;99.90;;;;;;4988423;28;20229;-86
2023/01/07 12:35:31;;;;;;;22.83;10.82;;;12.20;99.90;;;;;;5019491;28;20198;-88
2023/01/07 12:38:39;;;;;;;8.40;6.00;;;12.50;99.90;;;;;;5007311;28;20393;-85
2023/01/07 12:41:21;;;;;;;9.18;5.88;;;12.40;99.90;;;;;;5000563;28;20272;-87
2023/01/07 12:43:59;;;;;;;8.73;7.35;;;12.10;99.90;;;;;;5000899;28;20251;-85
2023/01/07 12:46:39;;;;;;;8.80;7.82;;;12.10;99.90;;;;;;5017279;28;20224;-85
2023/01/07 12:49:18;;;;;;;8.75;6.35;;;12.30;99.90;;;;;;5014585;28;20197;-84
2023/01/07 12:51:59;;;;;;;12.05;7.00;;;12.10;99.90;;;;;;4998581;28;20208;-86
2023/01/07 12:54:35;;;;;;;10.23;5.90;;;12.00;99.90;;;;;;5016888;28;20231;-85
2023/01/07 12:57:12;;;;;;;10.18;6.00;;;11.90;99.90;;;;;;5001878;28;20236;-87
2023/01/07 12:59:47;;;;;;;7.93;5.70;;;11.70;99.90;;;;;;5000956;28;20281;-86
2023/01/07 13:02:39;;;;;;;8.02;7.15;;;11.70;99.90;;;;;;5016543;28;20197;-87
2023/01/07 13:05:13;;;;;;;10.93;7.68;;;11.60;99.90;;;;;;5027352;28;20209;-86
2023/01/07 13:07:57;;;;;;;7.80;5.90;;;11.70;99.90;;;;;;5003584;28;20236;-85
2023/01/07 13:11:13;;;;;;;8.07;6.15;;;11.60;99.90;;;;;;5003538;28;20189;-85
2023/01/07 13:13:54;;;;;;;6.25;5.18;;;11.60;99.90;;;;;;5011841;28;20208;-85
2023/01/07 13:16:23;;;;;;;9.05;5.97;;;11.80;99.90;;;;;;5013217;28;20221;-87
2023/01/07 13:18:53;;;;;;;6.63;5.95;;;11.60;99.90;;;;;;5000117;28;20237;-85
2023/01/07 13:21:22;;;;;;;7.70;5.35;;;11.50;99.90;;;;;;5016852;28;20228;-84